createdAt,value
2023-04-22T00:04:41.848Z,8.8
2023-04-22T00:19:41.719Z,8.7
2023-04-22T00:34:41.577Z,8.7
2023-04-22T00:49:41.737Z,8.8
2023-04-22T01:04:41.577Z,8.7
2023-04-22T01:19:42.143Z,8.7
2023-04-22T01:34:41.556Z,8.6
2023-04-22T01:49:42.109Z,8.6
2023-04-22T02:04:41.616Z,8.6
2023-04-22T02:19:41.732Z,8.6
2023-04-22T02:34:41.548Z,8.5
2023-04-22T02:49:41.774Z,8.6
2023-04-22T03:04:41.587Z,8.4
2023-04-22T03:19:41.771Z,8.4
2023-04-22T03:34:41.587Z,8.4
2023-04-22T03:49:41.755Z,8.4
2023-04-22T04:04:41.738Z,8.3
2023-04-22T04:19:41.822Z,8.4
2023-04-22T04:34:41.589Z,8.5
2023-04-22T04:49:42.004Z,8.6
2023-04-22T05:04:41.633Z,8.7
2023-04-22T05:19:41.855Z,8.9
2023-04-22T05:34:41.583Z,9.2
2023-04-22T05:49:41.861Z,9.4
2023-04-22T06:04:41.872Z,9.6
2023-04-22T06:19:41.694Z,10.1
2023-04-22T06:34:41.538Z,10.3
2023-04-22T06:49:41.853Z,11.4
2023-04-22T07:04:41.712Z,11.6
2023-04-22T07:19:41.840Z,12.2
2023-04-22T07:34:41.558Z,13.1
2023-04-22T07:49:41.758Z,13.4
2023-04-22T08:04:41.612Z,14.4
2023-04-22T08:19:41.680Z,14.3
2023-04-22T08:34:41.630Z,14.9
2023-04-22T08:49:41.750Z,15.8
2023-04-22T09:04:41.606Z,16.8
2023-04-22T09:19:41.753Z,16.6
2023-04-22T09:34:41.581Z,17.3
2023-04-22T09:49:41.756Z,17.4
2023-04-22T10:04:41.728Z,17.9
2023-04-22T10:19:41.802Z,18.2
2023-04-22T10:34:41.582Z,19
2023-04-22T10:49:41.663Z,19.4
2023-04-22T11:04:41.567Z,19.2
2023-04-22T11:19:41.602Z,18.7
2023-04-22T11:34:41.618Z,18.6
2023-04-22T11:49:41.589Z,18.4
2023-04-22T12:04:41.574Z,18.3
2023-04-22T12:19:41.818Z,17.8
2023-04-22T12:34:41.591Z,18.1
2023-04-22T12:49:42.037Z,17.4
2023-04-22T13:04:41.598Z,17.1
2023-04-22T13:19:41.780Z,16.6
2023-04-22T13:34:41.569Z,16.7
2023-04-22T13:49:41.767Z,16.7
2023-04-22T14:04:41.589Z,16.6
2023-04-22T14:19:41.789Z,16.6
2023-04-22T14:34:41.579Z,16.6
2023-04-22T14:49:41.764Z,16.2
2023-04-22T15:04:41.568Z,15.8
2023-04-22T15:19:41.786Z,15.6
2023-04-22T15:34:41.556Z,15.6
2023-04-22T15:49:41.705Z,14.6
2023-04-22T16:04:41.674Z,14.2
2023-04-22T16:19:41.766Z,14.2
2023-04-22T16:34:41.575Z,14.3
2023-04-22T16:49:41.787Z,14.3
2023-04-22T17:04:41.588Z,14.3
2023-04-22T17:19:41.760Z,14.2
2023-04-22T17:34:41.751Z,13.6
2023-04-22T17:49:41.821Z,12.3
2023-04-22T18:04:41.589Z,11.9
2023-04-22T18:19:41.918Z,11.8
2023-04-22T18:34:41.736Z,11.7
2023-04-22T18:49:41.545Z,11.4
2023-04-22T19:04:41.853Z,11.1
2023-04-22T19:19:41.889Z,10.8
2023-04-22T19:34:41.593Z,10.4
2023-04-22T19:49:41.984Z,10.2
2023-04-22T20:04:41.606Z,10.1
2023-04-22T20:19:41.829Z,10
2023-04-22T20:34:41.926Z,9.9
2023-04-22T20:49:41.566Z,9.8
2023-04-22T21:04:41.730Z,9.8
2023-04-22T21:19:41.567Z,9.6
2023-04-22T21:34:41.921Z,9.3
2023-04-22T21:49:41.591Z,9.3
2023-04-22T22:04:41.725Z,9.1
2023-04-22T22:19:41.572Z,9.2
2023-04-22T22:34:41.842Z,9.2
2023-04-22T22:49:41.607Z,9.2
2023-04-22T23:04:41.780Z,9.4
2023-04-22T23:19:41.581Z,9.3
2023-04-22T23:34:41.792Z,9.3
2023-04-22T23:49:41.592Z,9.2
